createdAt,value
2018-07-11T00:02:25.271Z,47.60
2018-07-11T00:04:53.665Z,47.40
2018-07-11T00:07:22.214Z,47.70
2018-07-11T00:09:50.612Z,47.60
2018-07-11T00:12:19.044Z,47.80
2018-07-11T00:14:47.424Z,47.90
2018-07-11T00:17:16.180Z,47.40
2018-07-11T00:19:45.469Z,47.80
2018-07-11T00:22:13.856Z,48.00
2018-07-11T00:24:42.220Z,47.80
2018-07-11T00:27:11.140Z,47.60
2018-07-11T00:29:39.550Z,48.00
2018-07-11T00:32:07.948Z,48.00
2018-07-11T00:34:36.327Z,48.00
2018-07-11T00:37:04.763Z,48.00
2018-07-11T00:42:01.727Z,48.50
2018-07-11T00:44:30.141Z,48.40
2018-07-11T00:46:58.634Z,48.20
2018-07-11T00:49:27.620Z,48.30
2018-07-11T00:51:56.781Z,48.30
2018-07-11T00:54:25.438Z,48.30
2018-07-11T00:56:54.039Z,48.30
2018-07-11T00:59:25.481Z,48.30
2018-07-11T01:01:54.212Z,48.30
2018-07-11T01:04:22.618Z,48.50
2018-07-11T01:07:13.288Z,48.60
2018-07-11T01:09:45.406Z,48.80
2018-07-11T01:12:13.854Z,48.80
2018-07-11T01:14:42.276Z,48.80
2018-07-11T01:17:16.188Z,48.80
2018-07-11T01:19:45.486Z,48.90
2018-07-11T01:22:13.860Z,48.80
2018-07-11T01:24:42.796Z,49.20
2018-07-11T01:27:11.139Z,49.50
2018-07-11T01:29:39.524Z,49.70
2018-07-11T01:32:07.920Z,49.70
2018-07-11T01:34:36.888Z,49.60
2018-07-11T01:37:05.510Z,49.60
2018-07-11T01:39:33.982Z,49.80
2018-07-11T01:42:02.370Z,49.90
2018-07-11T01:44:30.715Z,50.00
2018-07-11T01:46:59.160Z,50.00
2018-07-11T01:49:27.607Z,50.20
2018-07-11T01:52:07.185Z,50.50
2018-07-11T01:54:35.622Z,50.60
2018-07-11T01:57:04.040Z,51.50
2018-07-11T01:59:35.483Z,51.60
2018-07-11T02:02:04.387Z,51.90
2018-07-11T02:04:35.804Z,52.00
2018-07-11T02:07:07.272Z,52.30
2018-07-11T02:09:35.844Z,52.20
2018-07-11T02:12:04.646Z,52.20
2018-07-11T02:14:33.217Z,52.50
2018-07-11T02:17:01.733Z,52.50
2018-07-11T02:19:30.170Z,52.50
2018-07-11T02:21:59.101Z,52.60
2018-07-11T02:24:27.494Z,52.90
2018-07-11T02:26:56.088Z,52.60
2018-07-11T02:29:25.542Z,52.50
2018-07-11T02:31:53.956Z,52.40
2018-07-11T02:34:27.800Z,52.40
2018-07-11T02:36:56.262Z,53.00
2018-07-11T02:39:24.602Z,52.10
2018-07-11T02:41:53.176Z,52.50
2018-07-11T02:44:22.044Z,53.50
2018-07-11T02:46:55.727Z,54.00
2018-07-11T02:51:52.538Z,54.60
2018-07-11T02:54:21.404Z,54.40
2018-07-11T02:56:49.774Z,54.00
2018-07-11T02:59:18.182Z,53.80
2018-07-11T03:01:46.574Z,53.60
2018-07-11T03:04:14.990Z,53.70
2018-07-11T03:09:11.435Z,53.50
2018-07-11T03:14:08.097Z,53.80
2018-07-11T03:16:36.472Z,53.90
2018-07-11T03:19:04.967Z,53.50
2018-07-11T03:21:33.383Z,53.90
2018-07-11T03:24:01.770Z,54.10
2018-07-11T03:26:30.255Z,54.10
2018-07-11T03:28:58.659Z,54.30
2018-07-11T03:31:27.139Z,54.40
2018-07-11T03:33:55.651Z,54.40
2018-07-11T03:36:24.637Z,55.20
2018-07-11T03:38:53.013Z,55.10
2018-07-11T03:41:21.364Z,55.10
2018-07-11T03:43:49.849Z,55.60
2018-07-11T03:46:18.284Z,55.70
2018-07-11T03:48:46.821Z,55.70
2018-07-11T03:51:15.197Z,56.40
2018-07-11T03:53:43.614Z,56.70
2018-07-11T03:56:11.923Z,56.70
2018-07-11T03:58:40.296Z,56.90
2018-07-11T04:01:08.701Z,57.00
2018-07-11T04:03:37.168Z,56.90
2018-07-11T04:06:05.568Z,57.20
2018-07-11T04:08:33.947Z,57.40
2018-07-11T04:11:02.299Z,57.10
2018-07-11T04:13:30.651Z,56.70
2018-07-11T04:15:58.994Z,56.20
2018-07-11T04:18:31.035Z,55.60
2018-07-11T04:21:00.871Z,55.10
2018-07-11T04:28:27.583Z,55.10
2018-07-11T04:30:56.087Z,55.70
2018-07-11T04:33:24.694Z,56.20
2018-07-11T04:35:53.949Z,56.70
2018-07-11T04:38:22.480Z,55.90
2018-07-11T04:40:51.225Z,56.50
2018-07-11T04:43:20.039Z,56.50
2018-07-11T04:45:48.701Z,56.60
2018-07-11T04:48:19.241Z,56.50
2018-07-11T04:50:48.962Z,57.00
2018-07-11T04:53:23.325Z,56.00
2018-07-11T04:58:21.471Z,55.90
2018-07-11T05:00:50.383Z,56.00
2018-07-11T05:03:18.771Z,55.60
2018-07-11T05:05:47.117Z,55.60
2018-07-11T05:08:15.550Z,55.60
2018-07-11T05:10:43.896Z,55.60
2018-07-11T05:13:12.329Z,55.60
2018-07-11T05:15:40.667Z,55.70
2018-07-11T05:18:09.047Z,55.70
2018-07-11T05:20:37.591Z,54.90
2018-07-11T05:23:05.984Z,55.20
2018-07-11T05:25:34.370Z,55.20
2018-07-11T05:28:02.884Z,55.20
2018-07-11T05:30:32.333Z,54.20
2018-07-11T05:33:00.725Z,54.80
2018-07-11T05:35:29.093Z,54.40
2018-07-11T05:37:57.607Z,54.30
2018-07-11T05:40:25.959Z,53.70
2018-07-11T05:42:54.487Z,54.10
2018-07-11T05:45:22.896Z,53.40
2018-07-11T05:47:51.239Z,53.40
2018-07-11T05:50:20.199Z,53.10
2018-07-11T05:52:48.537Z,52.90
2018-07-11T05:55:16.889Z,52.50
2018-07-11T05:57:45.294Z,52.80
2018-07-11T06:00:13.724Z,52.20
2018-07-11T06:02:42.240Z,51.70
2018-07-11T06:07:38.819Z,51.40
2018-07-11T06:10:07.205Z,51.00
2018-07-11T06:12:35.560Z,50.50
2018-07-11T06:15:03.925Z,49.80
2018-07-11T06:17:32.463Z,49.60
2018-07-11T06:20:01.529Z,48.10
2018-07-11T06:22:29.979Z,47.70
2018-07-11T06:24:58.383Z,47.80
2018-07-11T06:27:26.723Z,47.90
2018-07-11T06:29:55.109Z,47.30
2018-07-11T06:32:23.466Z,46.70
2018-07-11T06:34:51.835Z,45.80
2018-07-11T06:37:20.270Z,47.00
2018-07-11T06:39:48.599Z,45.80
2018-07-11T06:42:17.611Z,45.30
2018-07-11T06:44:45.960Z,45.20
2018-07-11T06:47:15.505Z,43.00
2018-07-11T06:52:14.253Z,39.90
2018-07-11T06:54:42.627Z,40.20
2018-07-11T06:57:11.019Z,40.80
2018-07-11T06:59:40.242Z,41.30
2018-07-11T07:02:08.613Z,41.20
2018-07-11T07:04:36.941Z,39.60
2018-07-11T07:07:05.382Z,40.00
2018-07-11T07:09:33.688Z,42.10
2018-07-11T07:12:02.189Z,40.90
2018-07-11T07:14:30.513Z,40.80
2018-07-11T07:16:58.867Z,40.60
2018-07-11T07:19:27.369Z,40.70
2018-07-11T07:21:55.799Z,40.10
2018-07-11T07:24:24.222Z,39.70
2018-07-11T07:26:52.692Z,39.50
2018-07-11T07:29:21.041Z,38.10
2018-07-11T07:31:49.478Z,38.30
2018-07-11T07:34:18.495Z,38.50
2018-07-11T07:36:46.859Z,38.60
2018-07-11T07:39:15.191Z,37.70
2018-07-11T07:41:43.573Z,37.40
2018-07-11T07:44:13.287Z,38.10
2018-07-11T07:46:45.935Z,37.70
2018-07-11T07:49:14.395Z,38.00
2018-07-11T07:51:42.740Z,36.80
2018-07-11T07:54:11.135Z,37.20
2018-07-11T07:56:39.601Z,37.40
2018-07-11T07:59:08.006Z,37.40
2018-07-11T08:04:05.277Z,36.90
2018-07-11T08:06:33.719Z,37.10
2018-07-11T08:09:02.180Z,37.10
2018-07-11T08:11:30.642Z,37.90
2018-07-11T08:13:59.096Z,37.00
2018-07-11T08:16:27.475Z,37.30
2018-07-11T08:18:55.851Z,38.20
2018-07-11T08:21:24.256Z,37.70
2018-07-11T08:24:04.259Z,36.90
2018-07-11T08:26:44.007Z,36.90
2018-07-11T08:31:28.983Z,37.30
2018-07-11T08:34:15.465Z,37.50
2018-07-11T08:38:58.606Z,36.10
2018-07-11T08:41:38.110Z,34.90
2018-07-11T08:47:02.477Z,35.80
2018-07-11T08:49:42.084Z,35.90
2018-07-11T08:54:54.438Z,35.00
2018-07-11T08:59:41.479Z,34.70
2018-07-11T09:12:13.907Z,36.20
2018-07-11T09:15:55.007Z,35.70
2018-07-11T09:21:04.958Z,36.60
2018-07-11T09:23:46.297Z,36.60
2018-07-11T09:26:15.356Z,37.70
2018-07-11T09:31:11.890Z,37.90
2018-07-11T09:33:40.992Z,37.80
2018-07-11T09:36:09.372Z,36.90
2018-07-11T09:38:37.785Z,36.90
2018-07-11T09:41:06.241Z,38.00
2018-07-11T09:43:34.699Z,37.40
2018-07-11T09:46:03.269Z,37.20
2018-07-11T09:48:31.764Z,36.70
2018-07-11T09:51:00.190Z,36.10
2018-07-11T09:53:28.672Z,36.50
2018-07-11T09:55:57.128Z,36.20
2018-07-11T09:58:25.558Z,35.70
2018-07-11T10:00:59.314Z,36.80
2018-07-11T10:03:27.902Z,37.20
2018-07-11T10:05:56.404Z,36.40
2018-07-11T10:08:24.802Z,35.10
2018-07-11T10:10:53.250Z,32.20
2018-07-11T10:15:49.868Z,32.70
2018-07-11T10:18:18.720Z,32.30
2018-07-11T10:20:47.762Z,33.50
2018-07-11T10:23:16.208Z,32.90
2018-07-11T10:25:45.198Z,32.70
2018-07-11T10:28:15.471Z,33.80
2018-07-11T10:30:43.827Z,33.90
2018-07-11T10:33:13.012Z,33.70
2018-07-11T10:35:41.892Z,32.90
2018-07-11T10:38:11.085Z,32.60
2018-07-11T10:40:39.544Z,32.60
2018-07-11T10:43:08.006Z,32.40
2018-07-11T10:48:04.452Z,31.40
2018-07-11T10:53:00.936Z,30.80
2018-07-11T10:55:29.334Z,31.60
2018-07-11T10:57:57.794Z,32.00
2018-07-11T11:00:36.664Z,32.30
2018-07-11T11:02:58.280Z,33.20
2018-07-11T11:05:26.656Z,34.30
2018-07-11T11:07:55.317Z,33.60
2018-07-11T11:10:23.708Z,32.60
2018-07-11T11:12:52.131Z,32.30
2018-07-11T11:15:20.590Z,32.40
2018-07-11T11:17:48.912Z,32.20
2018-07-11T11:20:17.277Z,32.00
2018-07-11T11:22:45.674Z,31.00
2018-07-11T11:25:14.074Z,31.30
2018-07-11T11:27:42.477Z,31.50
2018-07-11T11:30:10.852Z,29.40
2018-07-11T11:32:39.830Z,28.50
2018-07-11T11:35:08.264Z,28.80
2018-07-11T11:40:04.952Z,28.80
2018-07-11T11:42:33.670Z,30.90
2018-07-11T11:45:01.928Z,31.30
2018-07-11T11:47:30.304Z,31.50
2018-07-11T11:49:58.668Z,31.20
2018-07-11T11:52:27.096Z,31.60
2018-07-11T11:54:55.459Z,31.10
2018-07-11T11:57:23.897Z,31.20
2018-07-11T11:59:52.313Z,31.30
2018-07-11T12:02:21.099Z,32.20
2018-07-11T12:04:49.508Z,31.40
2018-07-11T12:07:17.900Z,31.70
2018-07-11T12:09:46.257Z,30.70
2018-07-11T12:12:14.605Z,30.90
2018-07-11T12:14:42.959Z,29.60
2018-07-11T12:17:11.485Z,30.10
2018-07-11T12:19:39.971Z,30.00
2018-07-11T12:22:08.295Z,29.40
2018-07-11T12:24:36.747Z,29.00
2018-07-11T12:27:05.399Z,28.50
2018-07-11T12:29:33.807Z,28.40
2018-07-11T12:32:02.165Z,28.60
2018-07-11T12:34:30.572Z,29.00
2018-07-11T12:36:59.004Z,29.40
2018-07-11T12:39:27.594Z,29.20
2018-07-11T12:41:56.651Z,29.70
2018-07-11T12:44:25.075Z,29.50
2018-07-11T12:46:53.591Z,29.10
2018-07-11T12:49:21.996Z,29.40
2018-07-11T12:51:50.359Z,28.40
2018-07-11T12:54:18.747Z,28.60
2018-07-11T12:56:47.199Z,28.00
2018-07-11T12:59:16.166Z,27.00
2018-07-11T13:01:44.947Z,27.00
2018-07-11T13:04:13.320Z,25.50
2018-07-11T13:06:41.765Z,26.10
2018-07-11T13:09:10.102Z,27.40
2018-07-11T13:11:38.690Z,26.80
2018-07-11T13:14:07.188Z,26.00
2018-07-11T13:16:35.555Z,25.70
2018-07-11T13:19:03.945Z,25.90
2018-07-11T13:21:32.305Z,25.70
2018-07-11T13:24:00.738Z,25.20
2018-07-11T13:26:29.147Z,25.30
2018-07-11T13:28:57.565Z,25.70
2018-07-11T13:31:25.987Z,26.00
2018-07-11T13:33:54.515Z,26.10
2018-07-11T13:36:22.883Z,27.00
2018-07-11T13:38:51.383Z,26.80
2018-07-11T13:41:19.885Z,26.40
2018-07-11T13:48:44.623Z,26.30
2018-07-11T13:51:13.062Z,26.60
2018-07-11T13:53:41.467Z,27.00
2018-07-11T14:01:13.433Z,26.70
2018-07-11T14:03:41.932Z,27.30
2018-07-11T14:06:10.461Z,26.20
2018-07-11T14:08:38.839Z,26.10
2018-07-11T14:11:07.343Z,25.90
2018-07-11T14:13:35.795Z,26.60
2018-07-11T14:16:04.170Z,26.30
2018-07-11T14:18:32.549Z,26.60
2018-07-11T14:21:00.945Z,26.50
2018-07-11T14:23:38.962Z,27.30
2018-07-11T14:26:08.159Z,27.40
2018-07-11T14:28:38.948Z,27.80
2018-07-11T14:31:07.344Z,28.20
2018-07-11T14:33:35.815Z,28.80
2018-07-11T14:38:33.105Z,29.20
2018-07-11T14:41:02.641Z,29.70
2018-07-11T14:43:31.093Z,29.80
2018-07-11T14:45:59.640Z,30.50
2018-07-11T14:48:29.925Z,30.10
2018-07-11T14:50:59.776Z,30.00
2018-07-11T14:53:28.201Z,31.00
2018-07-11T14:55:56.577Z,31.00
2018-07-11T14:58:25.559Z,30.70
2018-07-11T15:00:53.976Z,29.80
2018-07-11T15:03:22.410Z,29.60
2018-07-11T15:05:50.776Z,29.90
2018-07-11T15:08:19.320Z,30.00
2018-07-11T15:10:47.632Z,29.80
2018-07-11T15:15:44.332Z,29.60
2018-07-11T15:18:12.756Z,29.20
2018-07-11T15:20:41.234Z,28.80
2018-07-11T15:23:09.643Z,28.60
2018-07-11T15:25:38.115Z,28.70
2018-07-11T15:28:06.642Z,28.70
2018-07-11T15:30:35.105Z,28.70
2018-07-11T15:33:03.540Z,28.40
2018-07-11T15:35:32.036Z,28.70
2018-07-11T15:40:29.012Z,28.90
2018-07-11T15:42:57.430Z,29.40
2018-07-11T15:45:26.043Z,29.40
2018-07-11T15:47:54.940Z,29.90
2018-07-11T15:50:23.650Z,31.10
2018-07-11T15:52:52.599Z,31.10
2018-07-11T15:55:21.038Z,31.10
2018-07-11T15:57:51.272Z,31.00
2018-07-11T16:00:22.546Z,31.00
2018-07-11T16:02:50.940Z,31.00
2018-07-11T16:05:20.744Z,30.90
2018-07-11T16:07:51.158Z,31.00
2018-07-11T16:10:25.244Z,31.20
2018-07-11T16:12:53.664Z,30.00
2018-07-11T16:15:22.081Z,30.10
2018-07-11T16:17:57.190Z,29.40
2018-07-11T16:20:25.576Z,29.40
2018-07-11T16:22:54.017Z,28.10
2018-07-11T16:25:22.410Z,26.60
2018-07-11T16:27:51.000Z,27.20
2018-07-11T16:32:47.482Z,27.20
2018-07-11T16:37:43.896Z,27.90
2018-07-11T16:40:12.332Z,28.20
2018-07-11T16:42:43.900Z,28.20
2018-07-11T16:45:12.274Z,28.10
2018-07-11T16:47:40.706Z,28.00
2018-07-11T16:50:09.180Z,28.20
2018-07-11T16:52:37.586Z,28.30
2018-07-11T16:55:06.010Z,28.50
2018-07-11T16:57:47.125Z,28.10
2018-07-11T17:00:15.944Z,28.40
2018-07-11T17:02:46.101Z,28.20
2018-07-11T17:05:19.150Z,27.90
2018-07-11T17:07:50.898Z,27.60
2018-07-11T17:10:21.030Z,27.40
2018-07-11T17:12:56.997Z,27.30
2018-07-11T17:15:27.996Z,27.40
2018-07-11T17:17:57.687Z,27.60
2018-07-11T17:20:26.187Z,27.70
2018-07-11T17:22:58.307Z,27.30
2018-07-11T17:25:30.080Z,27.80
2018-07-11T17:28:02.968Z,26.80
2018-07-11T17:30:37.382Z,26.20
2018-07-11T17:33:07.325Z,26.90
2018-07-11T17:35:36.480Z,27.30
2018-07-11T17:38:07.267Z,27.00
2018-07-11T17:40:37.060Z,27.20
2018-07-11T17:43:07.219Z,26.90
2018-07-11T17:45:36.519Z,26.60
2018-07-11T17:50:35.127Z,26.00
2018-07-11T17:53:17.128Z,26.80
2018-07-11T17:56:07.262Z,27.10
2018-07-11T17:58:55.388Z,26.80
2018-07-11T18:01:41.357Z,27.10
2018-07-11T18:04:16.156Z,27.30
2018-07-11T18:07:00.347Z,27.10
2018-07-11T18:09:37.849Z,27.90
2018-07-11T18:12:15.347Z,28.40
2018-07-11T18:15:23.693Z,29.20
2018-07-11T18:18:36.487Z,29.10
2018-07-11T18:21:26.239Z,28.90
2018-07-11T18:26:07.264Z,29.00
2018-07-11T18:28:47.138Z,29.50
2018-07-11T18:31:40.517Z,29.90
2018-07-11T18:35:21.126Z,30.00
2018-07-11T18:37:57.774Z,31.10
2018-07-11T18:40:32.637Z,31.00
2018-07-11T18:43:17.393Z,31.00
2018-07-11T18:48:00.553Z,31.80
2018-07-11T18:50:43.451Z,31.80
2018-07-11T18:53:25.488Z,32.60
2018-07-11T18:56:05.044Z,32.90
2018-07-11T18:58:44.986Z,33.20
2018-07-11T19:01:19.769Z,33.10
2018-07-11T19:06:03.448Z,33.10
2018-07-11T19:08:40.937Z,32.80
2018-07-11T19:11:17.208Z,33.30
2018-07-11T19:13:47.572Z,32.60
2018-07-11T19:16:18.269Z,33.00
2018-07-11T19:19:00.521Z,33.20
2018-07-11T19:23:41.877Z,33.70
2018-07-11T19:26:20.816Z,34.10
2018-07-11T19:28:54.296Z,34.20
2018-07-11T19:31:32.147Z,34.20
2018-07-11T19:34:14.419Z,34.70
2018-07-11T19:39:33.059Z,35.60
2018-07-11T19:44:21.215Z,36.10
2018-07-11T19:51:04.766Z,36.50
2018-07-11T19:53:44.109Z,37.00
2018-07-11T19:56:20.177Z,36.80
2018-07-11T19:58:49.089Z,36.80
2018-07-11T20:01:17.638Z,36.70
2018-07-11T20:03:46.121Z,36.80
2018-07-11T20:06:14.572Z,37.10
2018-07-11T20:08:43.368Z,37.30
2018-07-11T20:11:11.934Z,38.00
2018-07-11T20:13:42.325Z,38.30
2018-07-11T20:16:11.761Z,37.80
2018-07-11T20:18:40.096Z,37.80
2018-07-11T20:21:08.595Z,39.20
2018-07-11T20:23:37.092Z,38.70
2018-07-11T20:26:05.875Z,40.00
2018-07-11T20:28:34.363Z,40.40
2018-07-11T20:31:02.827Z,40.90
2018-07-11T20:33:31.370Z,41.30
2018-07-11T20:35:59.853Z,41.20
2018-07-11T20:38:28.239Z,41.10
2018-07-11T20:40:56.750Z,41.40
2018-07-11T20:43:25.487Z,41.40
2018-07-11T20:45:53.897Z,41.20
2018-07-11T20:48:22.623Z,41.60
2018-07-11T20:50:51.035Z,41.80
2018-07-11T20:53:19.482Z,42.10
2018-07-11T20:58:27.272Z,42.80
2018-07-11T21:01:06.943Z,43.40
2018-07-11T21:03:47.371Z,43.40
2018-07-11T21:08:36.084Z,43.40
2018-07-11T21:11:15.249Z,43.40
2018-07-11T21:14:01.152Z,43.90
2018-07-11T21:16:44.703Z,44.10
2018-07-11T21:19:13.126Z,44.40
2018-07-11T21:21:42.440Z,44.20
2018-07-11T21:24:11.836Z,44.10
2018-07-11T21:26:40.308Z,44.10
2018-07-11T21:29:09.106Z,44.40
2018-07-11T21:31:37.504Z,44.80
2018-07-11T21:34:05.942Z,45.20
2018-07-11T21:36:34.325Z,45.20
2018-07-11T21:39:02.861Z,45.00
2018-07-11T21:41:31.259Z,44.90
2018-07-11T21:43:59.714Z,45.00
2018-07-11T21:46:28.120Z,44.60
2018-07-11T21:48:56.494Z,44.40
2018-07-11T21:51:24.933Z,44.30
2018-07-11T21:53:53.321Z,44.30
2018-07-11T21:56:21.688Z,44.40
2018-07-11T21:58:50.113Z,44.50
2018-07-11T22:01:18.511Z,44.80
2018-07-11T22:06:15.052Z,45.40
2018-07-11T22:08:43.420Z,45.10
2018-07-11T22:11:11.863Z,45.50
2018-07-11T22:13:40.214Z,45.40
2018-07-11T22:16:09.288Z,45.60
2018-07-11T22:18:40.512Z,45.60
2018-07-11T22:21:08.832Z,45.80
2018-07-11T22:23:36.216Z,45.70
2018-07-11T22:26:03.564Z,45.60
2018-07-11T22:28:30.821Z,45.30
2018-07-11T22:30:58.080Z,45.40
2018-07-11T22:33:25.362Z,45.50
2018-07-11T22:35:52.625Z,45.40
2018-07-11T22:38:19.895Z,45.50
2018-07-11T22:40:47.175Z,45.30
2018-07-11T22:43:14.434Z,45.40
2018-07-11T22:45:41.694Z,45.10
2018-07-11T22:48:08.988Z,45.00
2018-07-11T22:50:36.259Z,44.70
2018-07-11T22:53:03.545Z,44.60
2018-07-11T22:55:30.824Z,45.00
2018-07-11T22:57:58.089Z,44.70
2018-07-11T23:00:25.348Z,44.40
2018-07-11T23:02:52.624Z,44.80
2018-07-11T23:07:47.528Z,45.30
2018-07-11T23:10:14.805Z,44.90
2018-07-11T23:12:42.133Z,44.80
2018-07-11T23:15:09.997Z,45.00
2018-07-11T23:17:37.276Z,44.90
2018-07-11T23:20:04.533Z,45.10
2018-07-11T23:22:31.808Z,45.10
2018-07-11T23:24:59.109Z,45.10
2018-07-11T23:27:26.369Z,45.10
2018-07-11T23:29:53.642Z,45.30
2018-07-11T23:32:20.920Z,45.40
2018-07-11T23:34:48.201Z,45.80
2018-07-11T23:39:43.012Z,45.80
2018-07-11T23:42:11.090Z,47.00
2018-07-11T23:44:38.347Z,46.80
2018-07-11T23:47:05.640Z,46.90
2018-07-11T23:49:32.910Z,47.30
2018-07-11T23:52:00.174Z,47.60
2018-07-11T23:54:27.478Z,47.50
2018-07-11T23:56:54.753Z,47.40
2018-07-11T23:59:22.015Z,47.60
